Evans, Washington
Current Conditions -  °F | °C
As of 2:53 AM on Friday 28 Nov 2014 (Local Time) from KDEW Reporting Station
Clear Clear  
Wind Chill: 40°   Ceiling: Unl
Heat Index: 47°   Visibility: 10mi
Dew Point: 41°   Wind: 16mph
Humidity: 80%   Direction: 220°SW
Pressure: 29.63"   Gusts: 22mph
Location:  48.71°N, 118.03°W
Report Text: KDEW 281053Z AUTO 22014G19KT 10SM CLR 08/05 A2963 RMK AO2 SLP036 T00830050
Loading
Personal Weather Stations






























Interactive Weather Map New forecast layout! Learn more

10-Day Weather Forecast

Advertisements
Track Severe Weather on mobile